sensor_id;sensor_type;location;lat;lon;timestamp;P1;durP1;ratioP1;P2;durP2;ratioP2
72791;SDS011;60907;53.268;8.764;2023-02-15T10:58:46;32.30;;;17.35;;
72791;SDS011;60907;53.268;8.764;2023-02-15T11:06:18;33.17;;;15.82;;
72791;SDS011;60907;53.268;8.764;2023-02-15T11:08:49;32.22;;;15.98;;
72791;SDS011;60907;53.268;8.764;2023-02-15T11:11:23;34.17;;;16.70;;
72791;SDS011;60907;53.268;8.764;2023-02-15T11:13:59;32.60;;;16.27;;
72791;SDS011;60907;53.268;8.764;2023-02-15T11:16:37;33.97;;;17.92;;
72791;SDS011;60907;53.268;8.764;2023-02-15T11:19:06;35.30;;;17.23;;
72791;SDS011;60907;53.268;8.764;2023-02-15T11:21:45;32.60;;;17.23;;
72791;SDS011;60907;53.268;8.764;2023-02-15T11:24:16;34.85;;;16.80;;
72791;SDS011;60907;53.268;8.764;2023-02-15T11:26:46;33.08;;;16.58;;
72791;SDS011;60907;53.268;8.764;2023-02-15T11:32:13;29.25;;;14.98;;
72791;SDS011;60907;53.268;8.764;2023-02-15T11:34:51;28.27;;;14.93;;
72791;SDS011;60907;53.268;8.764;2023-02-15T11:37:21;25.67;;;14.00;;
72791;SDS011;60907;53.268;8.764;2023-02-15T11:39:59;26.50;;;13.40;;
72791;SDS011;60907;53.268;8.764;2023-02-15T11:44:57;28.50;;;13.63;;
72791;SDS011;60907;53.268;8.764;2023-02-15T11:47:24;29.15;;;14.90;;
72791;SDS011;60907;53.268;8.764;2023-02-15T11:49:49;23.73;;;13.43;;
72791;SDS011;60907;53.268;8.764;2023-02-15T11:52:15;25.17;;;13.68;;
72791;SDS011;60907;53.268;8.764;2023-02-15T11:54:42;24.42;;;13.50;;
72791;SDS011;60907;53.268;8.764;2023-02-15T11:57:31;31.70;;;14.90;;
72791;SDS011;60907;53.268;8.764;2023-02-15T12:03:48;27.85;;;13.90;;
72791;SDS011;60907;53.268;8.764;2023-02-15T12:06:01;29.77;;;15.25;;
72791;SDS011;60907;53.268;8.764;2023-02-15T12:08:31;27.48;;;13.60;;
72791;SDS011;60907;53.268;8.764;2023-02-15T12:11:05;28.45;;;13.80;;
72791;SDS011;60907;53.268;8.764;2023-02-15T12:13:33;26.88;;;13.65;;
72791;SDS011;60907;53.268;8.764;2023-02-15T12:15:59;25.20;;;13.43;;
72791;SDS011;60907;53.268;8.764;2023-02-15T12:18:33;24.08;;;13.90;;
72791;SDS011;60907;53.268;8.764;2023-02-15T12:21:03;27.40;;;15.10;;
72791;SDS011;60907;53.268;8.764;2023-02-15T12:23:31;27.75;;;15.38;;
72791;SDS011;60907;53.268;8.764;2023-02-15T12:25:57;23.85;;;14.00;;
72791;SDS011;60907;53.268;8.764;2023-02-15T12:31:02;26.92;;;14.52;;
72791;SDS011;60907;53.268;8.764;2023-02-15T12:36:22;32.97;;;15.35;;
72791;SDS011;60907;53.268;8.764;2023-02-15T12:39:16;29.00;;;15.18;;
72791;SDS011;60907;53.268;8.764;2023-02-15T12:42:13;29.45;;;16.85;;
72791;SDS011;60907;53.268;8.764;2023-02-15T12:44:34;32.60;;;16.15;;
72791;SDS011;60907;53.268;8.764;2023-02-15T12:49:33;34.67;;;16.05;;
72791;SDS011;60907;53.268;8.764;2023-02-15T12:52:00;33.13;;;16.20;;
72791;SDS011;60907;53.268;8.764;2023-02-15T12:54:49;32.78;;;16.83;;
72791;SDS011;60907;53.268;8.764;2023-02-15T12:59:48;34.30;;;16.60;;
72791;SDS011;60907;53.268;8.764;2023-02-15T13:02:24;30.45;;;16.33;;
72791;SDS011;60907;53.268;8.764;2023-02-15T13:05:10;36.78;;;17.90;;
72791;SDS011;60907;53.268;8.764;2023-02-15T13:07:44;35.08;;;18.02;;
72791;SDS011;60907;53.268;8.764;2023-02-15T13:10:21;32.70;;;16.73;;
72791;SDS011;60907;53.268;8.764;2023-02-15T13:12:49;36.92;;;17.38;;
72791;SDS011;60907;53.268;8.764;2023-02-15T13:17:57;33.10;;;15.88;;
72791;SDS011;60907;53.268;8.764;2023-02-15T13:20:23;32.03;;;16.73;;
72791;SDS011;60907;53.268;8.764;2023-02-15T13:22:49;31.20;;;17.40;;
72791;SDS011;60907;53.268;8.764;2023-02-15T13:25:19;34.60;;;17.67;;
72791;SDS011;60907;53.268;8.764;2023-02-15T13:27:48;35.45;;;18.35;;
72791;SDS011;60907;53.268;8.764;2023-02-15T13:30:22;33.95;;;17.77;;
72791;SDS011;60907;53.268;8.764;2023-02-15T13:33:29;36.88;;;18.33;;
72791;SDS011;60907;53.268;8.764;2023-02-15T13:41:09;38.55;;;18.88;;
72791;SDS011;60907;53.268;8.764;2023-02-15T13:49:36;38.28;;;18.98;;
72791;SDS011;60907;53.268;8.764;2023-02-15T13:52:01;39.50;;;17.55;;
72791;SDS011;60907;53.268;8.764;2023-02-15T16:51:27;33.42;;;14.88;;
72791;SDS011;60907;53.268;8.764;2023-02-15T16:53:54;31.90;;;16.05;;
72791;SDS011;60907;53.268;8.764;2023-02-15T16:56:24;32.53;;;14.95;;
72791;SDS011;60907;53.268;8.764;2023-02-15T16:58:51;32.83;;;14.50;;
72791;SDS011;60907;53.268;8.764;2023-02-15T17:01:20;33.65;;;14.65;;
72791;SDS011;60907;53.268;8.764;2023-02-15T17:03:49;34.80;;;15.40;;
72791;SDS011;60907;53.268;8.764;2023-02-15T17:06:19;32.88;;;15.20;;
72791;SDS011;60907;53.268;8.764;2023-02-15T17:08:50;35.40;;;15.32;;
72791;SDS011;60907;53.268;8.764;2023-02-15T17:11:17;29.63;;;16.05;;
72791;SDS011;60907;53.268;8.764;2023-02-15T17:16:31;35.65;;;15.43;;
72791;SDS011;60907;53.268;8.764;2023-02-15T17:18:59;34.97;;;14.90;;
72791;SDS011;60907;53.268;8.764;2023-02-15T17:21:35;28.50;;;14.32;;
72791;SDS011;60907;53.268;8.764;2023-02-15T17:24:04;26.75;;;13.18;;
72791;SDS011;60907;53.268;8.764;2023-02-15T17:26:31;31.67;;;14.10;;
72791;SDS011;60907;53.268;8.764;2023-02-15T17:31:35;33.40;;;15.40;;
72791;SDS011;60907;53.268;8.764;2023-02-15T17:34:01;28.38;;;15.88;;
72791;SDS011;60907;53.268;8.764;2023-02-15T17:36:27;32.70;;;15.10;;
72791;SDS011;60907;53.268;8.764;2023-02-15T17:41:23;29.15;;;12.75;;
72791;SDS011;60907;53.268;8.764;2023-02-15T17:43:50;28.83;;;13.77;;
72791;SDS011;60907;53.268;8.764;2023-02-15T17:46:15;35.45;;;15.80;;
72791;SDS011;60907;53.268;8.764;2023-02-15T17:48:44;33.67;;;16.48;;
72791;SDS011;60907;53.268;8.764;2023-02-15T17:51:12;36.05;;;16.65;;
72791;SDS011;60907;53.268;8.764;2023-02-15T17:53:38;32.03;;;15.85;;
72791;SDS011;60907;53.268;8.764;2023-02-15T17:56:04;32.88;;;15.38;;
72791;SDS011;60907;53.268;8.764;2023-02-15T17:58:34;33.15;;;16.30;;
72791;SDS011;60907;53.268;8.764;2023-02-15T18:01:00;30.63;;;13.63;;
72791;SDS011;60907;53.268;8.764;2023-02-15T18:03:48;28.38;;;13.70;;
72791;SDS011;60907;53.268;8.764;2023-02-15T18:06:34;36.58;;;15.30;;
72791;SDS011;60907;53.268;8.764;2023-02-15T18:09:20;30.23;;;14.90;;
72791;SDS011;60907;53.268;8.764;2023-02-15T18:12:23;29.08;;;14.30;;
72791;SDS011;60907;53.268;8.764;2023-02-15T18:14:53;34.72;;;14.25;;
72791;SDS011;60907;53.268;8.764;2023-02-15T18:17:20;27.95;;;13.93;;
72791;SDS011;60907;53.268;8.764;2023-02-15T18:19:49;31.80;;;14.80;;
72791;SDS011;60907;53.268;8.764;2023-02-15T18:22:16;29.95;;;15.07;;
72791;SDS011;60907;53.268;8.764;2023-02-15T18:24:43;31.05;;;15.07;;
72791;SDS011;60907;53.268;8.764;2023-02-15T18:27:09;31.90;;;14.55;;
72791;SDS011;60907;53.268;8.764;2023-02-15T18:29:36;31.70;;;14.00;;
72791;SDS011;60907;53.268;8.764;2023-02-15T18:32:07;28.77;;;14.40;;
72791;SDS011;60907;53.268;8.764;2023-02-15T18:34:53;30.20;;;14.25;;
72791;SDS011;60907;53.268;8.764;2023-02-15T18:37:20;29.17;;;12.68;;
72791;SDS011;60907;53.268;8.764;2023-02-15T18:39:47;34.10;;;15.13;;
72791;SDS011;60907;53.268;8.764;2023-02-15T18:44:48;31.92;;;13.02;;
72791;SDS011;60907;53.268;8.764;2023-02-15T18:47:15;32.78;;;15.02;;
72791;SDS011;60907;53.268;8.764;2023-02-15T18:49:40;30.05;;;13.55;;
72791;SDS011;60907;53.268;8.764;2023-02-15T18:52:08;31.53;;;15.47;;
72791;SDS011;60907;53.268;8.764;2023-02-15T18:54:40;27.98;;;14.02;;
72791;SDS011;60907;53.268;8.764;2023-02-15T18:57:08;33.20;;;15.93;;
72791;SDS011;60907;53.268;8.764;2023-02-15T18:59:37;33.03;;;14.13;;
72791;SDS011;60907;53.268;8.764;2023-02-15T19:02:02;35.77;;;15.63;;
72791;SDS011;60907;53.268;8.764;2023-02-15T19:04:28;31.65;;;14.43;;
72791;SDS011;60907;53.268;8.764;2023-02-15T19:06:53;33.90;;;14.88;;
72791;SDS011;60907;53.268;8.764;2023-02-15T19:09:20;31.27;;;14.45;;
72791;SDS011;60907;53.268;8.764;2023-02-15T19:11:51;31.30;;;13.35;;
72791;SDS011;60907;53.268;8.764;2023-02-15T19:14:24;29.95;;;14.20;;
72791;SDS011;60907;53.268;8.764;2023-02-15T19:16:51;29.92;;;13.68;;
72791;SDS011;60907;53.268;8.764;2023-02-15T19:19:17;36.05;;;15.93;;
72791;SDS011;60907;53.268;8.764;2023-02-15T19:21:42;31.27;;;14.15;;
72791;SDS011;60907;53.268;8.764;2023-02-15T19:24:11;28.50;;;13.70;;
72791;SDS011;60907;53.268;8.764;2023-02-15T19:26:40;27.17;;;13.93;;
72791;SDS011;60907;53.268;8.764;2023-02-15T19:29:06;31.38;;;14.50;;
72791;SDS011;60907;53.268;8.764;2023-02-15T19:31:33;33.22;;;13.45;;
72791;SDS011;60907;53.268;8.764;2023-02-15T19:33:59;29.52;;;13.65;;
72791;SDS011;60907;53.268;8.764;2023-02-15T19:36:24;29.13;;;12.87;;
72791;SDS011;60907;53.268;8.764;2023-02-15T19:38:50;28.17;;;13.77;;
72791;SDS011;60907;53.268;8.764;2023-02-15T19:41:22;24.27;;;11.52;;
72791;SDS011;60907;53.268;8.764;2023-02-15T19:43:56;24.35;;;11.70;;
72791;SDS011;60907;53.268;8.764;2023-02-15T19:46:23;32.42;;;13.43;;
72791;SDS011;60907;53.268;8.764;2023-02-15T19:48:49;30.23;;;15.10;;
72791;SDS011;60907;53.268;8.764;2023-02-15T19:51:14;29.58;;;14.95;;
72791;SDS011;60907;53.268;8.764;2023-02-15T19:53:40;35.92;;;15.23;;
72791;SDS011;60907;53.268;8.764;2023-02-15T19:56:13;29.98;;;13.27;;
72791;SDS011;60907;53.268;8.764;2023-02-15T19:58:42;24.48;;;12.77;;
72791;SDS011;60907;53.268;8.764;2023-02-15T20:01:07;37.40;;;15.27;;
72791;SDS011;60907;53.268;8.764;2023-02-15T20:03:33;32.15;;;14.50;;
72791;SDS011;60907;53.268;8.764;2023-02-15T20:05:59;34.08;;;15.15;;
72791;SDS011;60907;53.268;8.764;2023-02-15T20:08:24;35.30;;;15.43;;
72791;SDS011;60907;53.268;8.764;2023-02-15T20:10:50;33.47;;;14.95;;
72791;SDS011;60907;53.268;8.764;2023-02-15T20:13:17;33.95;;;14.52;;
72791;SDS011;60907;53.268;8.764;2023-02-15T20:15:43;39.22;;;15.45;;
72791;SDS011;60907;53.268;8.764;2023-02-15T20:18:10;34.60;;;15.43;;
72791;SDS011;60907;53.268;8.764;2023-02-15T20:25:52;33.13;;;15.60;;
72791;SDS011;60907;53.268;8.764;2023-02-15T20:28:22;36.20;;;15.35;;
72791;SDS011;60907;53.268;8.764;2023-02-15T20:30:50;35.13;;;15.77;;
72791;SDS011;60907;53.268;8.764;2023-02-15T20:33:15;38.30;;;17.02;;
72791;SDS011;60907;53.268;8.764;2023-02-15T20:35:41;35.72;;;16.42;;
72791;SDS011;60907;53.268;8.764;2023-02-15T20:38:11;39.95;;;17.10;;
72791;SDS011;60907;53.268;8.764;2023-02-15T20:40:41;36.95;;;17.33;;
72791;SDS011;60907;53.268;8.764;2023-02-15T20:43:26;33.92;;;15.48;;
72791;SDS011;60907;53.268;8.764;2023-02-15T20:45:51;37.87;;;16.30;;
72791;SDS011;60907;53.268;8.764;2023-02-15T20:48:17;34.10;;;15.30;;
72791;SDS011;60907;53.268;8.764;2023-02-15T20:50:42;34.03;;;15.80;;
72791;SDS011;60907;53.268;8.764;2023-02-15T20:53:08;36.60;;;15.57;;
72791;SDS011;60907;53.268;8.764;2023-02-15T20:55:33;37.03;;;17.23;;
72791;SDS011;60907;53.268;8.764;2023-02-15T20:57:59;40.00;;;16.30;;
72791;SDS011;60907;53.268;8.764;2023-02-15T21:00:26;37.58;;;16.88;;
72791;SDS011;60907;53.268;8.764;2023-02-15T21:02:59;36.13;;;16.05;;
72791;SDS011;60907;53.268;8.764;2023-02-15T21:05:26;38.05;;;16.33;;
72791;SDS011;60907;53.268;8.764;2023-02-15T21:07:57;36.65;;;16.90;;
72791;SDS011;60907;53.268;8.764;2023-02-15T21:10:27;41.67;;;16.30;;
72791;SDS011;60907;53.268;8.764;2023-02-15T21:12:54;41.72;;;17.73;;
72791;SDS011;60907;53.268;8.764;2023-02-15T21:15:23;38.10;;;17.05;;
72791;SDS011;60907;53.268;8.764;2023-02-15T21:17:49;39.58;;;18.58;;
72791;SDS011;60907;53.268;8.764;2023-02-15T21:20:15;32.83;;;16.60;;
72791;SDS011;60907;53.268;8.764;2023-02-15T21:22:40;31.92;;;16.33;;
72791;SDS011;60907;53.268;8.764;2023-02-15T21:25:06;38.47;;;16.65;;
72791;SDS011;60907;53.268;8.764;2023-02-15T21:27:42;42.05;;;16.67;;
72791;SDS011;60907;53.268;8.764;2023-02-15T21:30:15;33.55;;;16.05;;
72791;SDS011;60907;53.268;8.764;2023-02-15T21:32:41;35.60;;;16.40;;
72791;SDS011;60907;53.268;8.764;2023-02-15T21:35:07;40.35;;;17.17;;
72791;SDS011;60907;53.268;8.764;2023-02-15T21:37:35;37.58;;;16.15;;
72791;SDS011;60907;53.268;8.764;2023-02-15T21:40:02;38.90;;;17.40;;
72791;SDS011;60907;53.268;8.764;2023-02-15T21:42:30;40.53;;;17.30;;
72791;SDS011;60907;53.268;8.764;2023-02-15T21:45:15;40.58;;;16.75;;
72791;SDS011;60907;53.268;8.764;2023-02-15T21:48:00;33.47;;;16.90;;
72791;SDS011;60907;53.268;8.764;2023-02-15T21:50:25;39.30;;;16.30;;
72791;SDS011;60907;53.268;8.764;2023-02-15T21:53:11;39.75;;;18.17;;
72791;SDS011;60907;53.268;8.764;2023-02-15T21:55:38;40.90;;;17.15;;
72791;SDS011;60907;53.268;8.764;2023-02-15T21:58:04;38.38;;;17.33;;
72791;SDS011;60907;53.268;8.764;2023-02-15T22:00:30;40.75;;;17.98;;
72791;SDS011;60907;53.268;8.764;2023-02-15T22:02:57;43.30;;;17.35;;
72791;SDS011;60907;53.268;8.764;2023-02-15T22:05:29;40.25;;;18.75;;
72791;SDS011;60907;53.268;8.764;2023-02-15T22:07:55;40.05;;;18.08;;
72791;SDS011;60907;53.268;8.764;2023-02-15T22:10:27;43.00;;;18.58;;
72791;SDS011;60907;53.268;8.764;2023-02-15T22:12:54;42.88;;;18.27;;
72791;SDS011;60907;53.268;8.764;2023-02-15T22:15:23;39.75;;;17.83;;
72791;SDS011;60907;53.268;8.764;2023-02-15T22:17:50;40.45;;;17.90;;
72791;SDS011;60907;53.268;8.764;2023-02-15T22:20:21;41.85;;;19.13;;
72791;SDS011;60907;53.268;8.764;2023-02-15T22:22:47;40.05;;;18.35;;
72791;SDS011;60907;53.268;8.764;2023-02-15T22:25:14;37.10;;;17.55;;
72791;SDS011;60907;53.268;8.764;2023-02-15T22:27:40;42.28;;;18.08;;
72791;SDS011;60907;53.268;8.764;2023-02-15T22:32:58;44.40;;;17.85;;
72791;SDS011;60907;53.268;8.764;2023-02-15T22:35:33;45.28;;;18.00;;
72791;SDS011;60907;53.268;8.764;2023-02-15T22:38:00;39.33;;;17.95;;
72791;SDS011;60907;53.268;8.764;2023-02-15T22:40:27;40.80;;;16.73;;
72791;SDS011;60907;53.268;8.764;2023-02-15T22:42:54;36.58;;;17.20;;
72791;SDS011;60907;53.268;8.764;2023-02-15T22:45:21;38.88;;;18.15;;
72791;SDS011;60907;53.268;8.764;2023-02-15T22:47:49;48.78;;;18.77;;
72791;SDS011;60907;53.268;8.764;2023-02-15T22:50:26;47.30;;;19.77;;
72791;SDS011;60907;53.268;8.764;2023-02-15T22:52:53;42.95;;;18.65;;
72791;SDS011;60907;53.268;8.764;2023-02-15T22:55:20;43.20;;;18.33;;
72791;SDS011;60907;53.268;8.764;2023-02-15T22:57:48;48.63;;;18.83;;
72791;SDS011;60907;53.268;8.764;2023-02-15T23:00:16;39.25;;;17.45;;
72791;SDS011;60907;53.268;8.764;2023-02-15T23:02:45;43.10;;;18.55;;
72791;SDS011;60907;53.268;8.764;2023-02-15T23:05:18;40.60;;;17.98;;
72791;SDS011;60907;53.268;8.764;2023-02-15T23:07:45;45.92;;;19.50;;
72791;SDS011;60907;53.268;8.764;2023-02-15T23:10:11;44.45;;;19.45;;
72791;SDS011;60907;53.268;8.764;2023-02-15T23:12:45;44.08;;;18.58;;
72791;SDS011;60907;53.268;8.764;2023-02-15T23:15:30;43.33;;;18.15;;
72791;SDS011;60907;53.268;8.764;2023-02-15T23:17:55;41.70;;;18.37;;
72791;SDS011;60907;53.268;8.764;2023-02-15T23:20:21;39.83;;;17.47;;
72791;SDS011;60907;53.268;8.764;2023-02-15T23:22:46;44.80;;;18.13;;
72791;SDS011;60907;53.268;8.764;2023-02-15T23:25:11;40.80;;;17.85;;
72791;SDS011;60907;53.268;8.764;2023-02-15T23:27:37;41.97;;;18.17;;
72791;SDS011;60907;53.268;8.764;2023-02-15T23:30:21;46.53;;;18.13;;
72791;SDS011;60907;53.268;8.764;2023-02-15T23:32:46;45.58;;;20.17;;
72791;SDS011;60907;53.268;8.764;2023-02-15T23:35:15;44.20;;;18.90;;
72791;SDS011;60907;53.268;8.764;2023-02-15T23:37:41;44.50;;;18.75;;
72791;SDS011;60907;53.268;8.764;2023-02-15T23:40:14;39.55;;;19.17;;
72791;SDS011;60907;53.268;8.764;2023-02-15T23:42:59;48.28;;;20.15;;
72791;SDS011;60907;53.268;8.764;2023-02-15T23:45:24;41.83;;;18.65;;
72791;SDS011;60907;53.268;8.764;2023-02-15T23:47:50;39.58;;;18.42;;
72791;SDS011;60907;53.268;8.764;2023-02-15T23:50:33;46.58;;;19.30;;
72791;SDS011;60907;53.268;8.764;2023-02-15T23:52:59;43.40;;;19.00;;
72791;SDS011;60907;53.268;8.764;2023-02-15T23:55:27;48.03;;;20.92;;
72791;SDS011;60907;53.268;8.764;2023-02-15T23:57:59;43.42;;;18.65;;
